sensor_id;sensor_type;location;lat;lon;timestamp;P1;durP1;ratioP1;P2;durP2;ratioP2
57551;SDS011;43379;48.160;14.036;2023-09-08T00:01:21;7.90;;;7.10;;
57551;SDS011;43379;48.160;14.036;2023-09-08T00:03:47;7.30;;;6.60;;
57551;SDS011;43379;48.160;14.036;2023-09-08T00:06:13;7.30;;;6.57;;
57551;SDS011;43379;48.160;14.036;2023-09-08T00:08:38;7.17;;;6.67;;
57551;SDS011;43379;48.160;14.036;2023-09-08T00:11:04;7.53;;;6.93;;
57551;SDS011;43379;48.160;14.036;2023-09-08T00:13:31;7.10;;;6.50;;
57551;SDS011;43379;48.160;14.036;2023-09-08T00:15:57;7.53;;;6.93;;
57551;SDS011;43379;48.160;14.036;2023-09-08T00:18:23;8.27;;;6.80;;
57551;SDS011;43379;48.160;14.036;2023-09-08T00:20:48;8.00;;;6.70;;
57551;SDS011;43379;48.160;14.036;2023-09-08T00:23:14;7.13;;;6.47;;
57551;SDS011;43379;48.160;14.036;2023-09-08T00:25:40;6.50;;;6.00;;
57551;SDS011;43379;48.160;14.036;2023-09-08T00:28:05;11.53;;;7.03;;
57551;SDS011;43379;48.160;14.036;2023-09-08T00:30:31;7.60;;;6.90;;
57551;SDS011;43379;48.160;14.036;2023-09-08T00:32:57;8.40;;;6.90;;
57551;SDS011;43379;48.160;14.036;2023-09-08T00:35:23;7.33;;;6.63;;
57551;SDS011;43379;48.160;14.036;2023-09-08T00:37:48;10.03;;;7.80;;
57551;SDS011;43379;48.160;14.036;2023-09-08T00:40:14;8.10;;;7.40;;
57551;SDS011;43379;48.160;14.036;2023-09-08T00:42:40;7.53;;;6.83;;
57551;SDS011;43379;48.160;14.036;2023-09-08T00:45:05;8.37;;;7.67;;
57551;SDS011;43379;48.160;14.036;2023-09-08T00:47:31;8.07;;;7.23;;
57551;SDS011;43379;48.160;14.036;2023-09-08T00:49:58;7.93;;;7.13;;
57551;SDS011;43379;48.160;14.036;2023-09-08T00:52:23;8.23;;;7.30;;
57551;SDS011;43379;48.160;14.036;2023-09-08T00:54:49;8.33;;;7.40;;
57551;SDS011;43379;48.160;14.036;2023-09-08T00:57:15;8.50;;;7.70;;
57551;SDS011;43379;48.160;14.036;2023-09-08T00:59:40;7.40;;;6.80;;
57551;SDS011;43379;48.160;14.036;2023-09-08T01:02:06;8.67;;;7.87;;
57551;SDS011;43379;48.160;14.036;2023-09-08T01:04:32;7.97;;;7.30;;
57551;SDS011;43379;48.160;14.036;2023-09-08T01:06:58;7.63;;;7.03;;
57551;SDS011;43379;48.160;14.036;2023-09-08T01:09:25;8.30;;;7.70;;
57551;SDS011;43379;48.160;14.036;2023-09-08T01:11:51;8.00;;;7.30;;
57551;SDS011;43379;48.160;14.036;2023-09-08T01:14:19;8.77;;;7.93;;
57551;SDS011;43379;48.160;14.036;2023-09-08T01:16:45;8.37;;;7.17;;
57551;SDS011;43379;48.160;14.036;2023-09-08T01:19:11;10.20;;;8.30;;
57551;SDS011;43379;48.160;14.036;2023-09-08T01:24:44;8.00;;;7.30;;
57551;SDS011;43379;48.160;14.036;2023-09-08T01:27:33;8.77;;;7.93;;
57551;SDS011;43379;48.160;14.036;2023-09-08T01:30:01;8.23;;;7.50;;
57551;SDS011;43379;48.160;14.036;2023-09-08T01:32:28;8.23;;;7.53;;
57551;SDS011;43379;48.160;14.036;2023-09-08T01:34:55;8.20;;;7.50;;
57551;SDS011;43379;48.160;14.036;2023-09-08T01:37:23;8.47;;;7.77;;
57551;SDS011;43379;48.160;14.036;2023-09-08T01:39:48;8.07;;;7.37;;
57551;SDS011;43379;48.160;14.036;2023-09-08T01:42:14;12.40;;;8.47;;
57551;SDS011;43379;48.160;14.036;2023-09-08T01:44:40;8.13;;;7.43;;
57551;SDS011;43379;48.160;14.036;2023-09-08T01:47:05;8.50;;;7.50;;
57551;SDS011;43379;48.160;14.036;2023-09-08T01:49:31;9.70;;;7.80;;
57551;SDS011;43379;48.160;14.036;2023-09-08T01:51:57;8.10;;;7.40;;
57551;SDS011;43379;48.160;14.036;2023-09-08T01:54:22;10.23;;;7.57;;
57551;SDS011;43379;48.160;14.036;2023-09-08T01:56:48;8.50;;;7.63;;
57551;SDS011;43379;48.160;14.036;2023-09-08T01:59:14;8.70;;;7.80;;
57551;SDS011;43379;48.160;14.036;2023-09-08T02:01:39;8.23;;;7.43;;
57551;SDS011;43379;48.160;14.036;2023-09-08T02:04:05;8.23;;;7.43;;
57551;SDS011;43379;48.160;14.036;2023-09-08T02:06:31;8.80;;;8.00;;
57551;SDS011;43379;48.160;14.036;2023-09-08T02:08:56;7.90;;;7.00;;
57551;SDS011;43379;48.160;14.036;2023-09-08T02:11:22;7.70;;;7.10;;
57551;SDS011;43379;48.160;14.036;2023-09-08T02:13:48;8.50;;;7.60;;
57551;SDS011;43379;48.160;14.036;2023-09-08T02:16:14;8.60;;;7.90;;
57551;SDS011;43379;48.160;14.036;2023-09-08T02:18:41;7.83;;;7.13;;
57551;SDS011;43379;48.160;14.036;2023-09-08T02:21:07;8.10;;;7.30;;
57551;SDS011;43379;48.160;14.036;2023-09-08T02:23:32;8.20;;;7.50;;
57551;SDS011;43379;48.160;14.036;2023-09-08T02:25:58;7.20;;;6.50;;
57551;SDS011;43379;48.160;14.036;2023-09-08T02:28:24;9.43;;;8.60;;
57551;SDS011;43379;48.160;14.036;2023-09-08T02:30:50;8.43;;;7.70;;
57551;SDS011;43379;48.160;14.036;2023-09-08T02:33:15;7.80;;;7.17;;
57551;SDS011;43379;48.160;14.036;2023-09-08T02:35:41;7.53;;;6.93;;
57551;SDS011;43379;48.160;14.036;2023-09-08T02:38:07;7.80;;;7.10;;
57551;SDS011;43379;48.160;14.036;2023-09-08T02:40:32;8.80;;;6.70;;
57551;SDS011;43379;48.160;14.036;2023-09-08T02:43:01;7.70;;;7.00;;
57551;SDS011;43379;48.160;14.036;2023-09-08T02:45:28;8.63;;;7.73;;
57551;SDS011;43379;48.160;14.036;2023-09-08T02:47:53;8.90;;;7.90;;
57551;SDS011;43379;48.160;14.036;2023-09-08T02:50:19;8.03;;;7.33;;
57551;SDS011;43379;48.160;14.036;2023-09-08T02:52:45;7.93;;;7.33;;
57551;SDS011;43379;48.160;14.036;2023-09-08T02:55:11;8.50;;;7.80;;
57551;SDS011;43379;48.160;14.036;2023-09-08T02:57:37;7.77;;;7.03;;
57551;SDS011;43379;48.160;14.036;2023-09-08T03:00:04;7.63;;;7.03;;
57551;SDS011;43379;48.160;14.036;2023-09-08T03:02:32;8.10;;;7.40;;
57551;SDS011;43379;48.160;14.036;2023-09-08T03:04:58;8.00;;;7.30;;
57551;SDS011;43379;48.160;14.036;2023-09-08T03:07:23;7.80;;;7.20;;
57551;SDS011;43379;48.160;14.036;2023-09-08T03:09:49;7.93;;;7.23;;
57551;SDS011;43379;48.160;14.036;2023-09-08T03:12:15;8.57;;;7.63;;
57551;SDS011;43379;48.160;14.036;2023-09-08T03:14:40;8.23;;;7.43;;
57551;SDS011;43379;48.160;14.036;2023-09-08T03:17:06;9.10;;;8.00;;
57551;SDS011;43379;48.160;14.036;2023-09-08T03:19:31;7.90;;;7.20;;
57551;SDS011;43379;48.160;14.036;2023-09-08T03:21:58;8.50;;;7.80;;
57551;SDS011;43379;48.160;14.036;2023-09-08T03:24:24;8.07;;;7.43;;
57551;SDS011;43379;48.160;14.036;2023-09-08T03:26:49;8.87;;;7.97;;
57551;SDS011;43379;48.160;14.036;2023-09-08T03:29:15;10.60;;;7.90;;
57551;SDS011;43379;48.160;14.036;2023-09-08T03:31:40;8.43;;;7.80;;
57551;SDS011;43379;48.160;14.036;2023-09-08T03:34:06;8.70;;;7.90;;
57551;SDS011;43379;48.160;14.036;2023-09-08T03:36:32;10.67;;;8.60;;
57551;SDS011;43379;48.160;14.036;2023-09-08T03:39:01;9.30;;;8.40;;
57551;SDS011;43379;48.160;14.036;2023-09-08T03:41:27;9.90;;;9.10;;
57551;SDS011;43379;48.160;14.036;2023-09-08T03:43:53;10.07;;;8.83;;
57551;SDS011;43379;48.160;14.036;2023-09-08T03:46:18;8.90;;;8.10;;
57551;SDS011;43379;48.160;14.036;2023-09-08T03:48:44;9.37;;;8.27;;
57551;SDS011;43379;48.160;14.036;2023-09-08T03:51:10;8.93;;;8.23;;
57551;SDS011;43379;48.160;14.036;2023-09-08T03:53:35;9.70;;;8.53;;
57551;SDS011;43379;48.160;14.036;2023-09-08T03:56:01;10.53;;;9.00;;
57551;SDS011;43379;48.160;14.036;2023-09-08T03:58:27;9.37;;;8.47;;
57551;SDS011;43379;48.160;14.036;2023-09-08T04:00:53;8.50;;;7.60;;
57551;SDS011;43379;48.160;14.036;2023-09-08T04:03:19;8.57;;;7.87;;
57551;SDS011;43379;48.160;14.036;2023-09-08T04:05:45;8.77;;;7.87;;
57551;SDS011;43379;48.160;14.036;2023-09-08T04:08:10;9.50;;;8.60;;
57551;SDS011;43379;48.160;14.036;2023-09-08T04:10:36;9.33;;;8.50;;
57551;SDS011;43379;48.160;14.036;2023-09-08T04:13:02;9.30;;;8.50;;
57551;SDS011;43379;48.160;14.036;2023-09-08T04:15:28;8.87;;;8.07;;
57551;SDS011;43379;48.160;14.036;2023-09-08T04:17:54;8.13;;;7.40;;
57551;SDS011;43379;48.160;14.036;2023-09-08T04:20:21;9.93;;;9.13;;
57551;SDS011;43379;48.160;14.036;2023-09-08T04:22:47;12.30;;;8.90;;
57551;SDS011;43379;48.160;14.036;2023-09-08T04:25:13;8.70;;;8.00;;
57551;SDS011;43379;48.160;14.036;2023-09-08T04:27:38;9.07;;;8.17;;
57551;SDS011;43379;48.160;14.036;2023-09-08T04:30:05;9.77;;;8.87;;
57551;SDS011;43379;48.160;14.036;2023-09-08T04:32:31;8.50;;;7.70;;
57551;SDS011;43379;48.160;14.036;2023-09-08T04:34:57;9.73;;;8.43;;
57551;SDS011;43379;48.160;14.036;2023-09-08T04:37:23;10.70;;;9.70;;
57551;SDS011;43379;48.160;14.036;2023-09-08T04:39:49;8.97;;;8.23;;
57551;SDS011;43379;48.160;14.036;2023-09-08T04:42:14;10.80;;;8.40;;
57551;SDS011;43379;48.160;14.036;2023-09-08T04:44:40;8.60;;;7.70;;
57551;SDS011;43379;48.160;14.036;2023-09-08T04:47:06;8.60;;;7.90;;
57551;SDS011;43379;48.160;14.036;2023-09-08T04:49:32;7.90;;;7.10;;
57551;SDS011;43379;48.160;14.036;2023-09-08T04:51:57;8.50;;;7.73;;
57551;SDS011;43379;48.160;14.036;2023-09-08T04:54:23;8.70;;;8.00;;
57551;SDS011;43379;48.160;14.036;2023-09-08T04:56:52;8.73;;;7.93;;
57551;SDS011;43379;48.160;14.036;2023-09-08T04:59:18;8.30;;;7.67;;
57551;SDS011;43379;48.160;14.036;2023-09-08T05:01:43;8.60;;;7.90;;
57551;SDS011;43379;48.160;14.036;2023-09-08T05:04:09;9.03;;;8.23;;
57551;SDS011;43379;48.160;14.036;2023-09-08T05:06:35;9.70;;;8.70;;
57551;SDS011;43379;48.160;14.036;2023-09-08T05:09:01;8.30;;;7.50;;
57551;SDS011;43379;48.160;14.036;2023-09-08T05:11:27;9.67;;;8.53;;
57551;SDS011;43379;48.160;14.036;2023-09-08T05:13:52;8.97;;;8.17;;
57551;SDS011;43379;48.160;14.036;2023-09-08T05:16:18;8.50;;;7.80;;
57551;SDS011;43379;48.160;14.036;2023-09-08T05:18:51;8.77;;;7.90;;
57551;SDS011;43379;48.160;14.036;2023-09-08T05:21:16;8.77;;;8.07;;
57551;SDS011;43379;48.160;14.036;2023-09-08T05:23:42;9.00;;;8.20;;
57551;SDS011;43379;48.160;14.036;2023-09-08T05:26:08;9.67;;;8.80;;
57551;SDS011;43379;48.160;14.036;2023-09-08T05:28:33;9.33;;;8.57;;
57551;SDS011;43379;48.160;14.036;2023-09-08T05:30:59;9.07;;;8.27;;
57551;SDS011;43379;48.160;14.036;2023-09-08T05:33:25;9.10;;;8.30;;
57551;SDS011;43379;48.160;14.036;2023-09-08T05:35:50;8.20;;;7.60;;
57551;SDS011;43379;48.160;14.036;2023-09-08T05:38:16;8.83;;;7.93;;
57551;SDS011;43379;48.160;14.036;2023-09-08T05:40:42;7.83;;;7.13;;
57551;SDS011;43379;48.160;14.036;2023-09-08T05:43:08;9.27;;;8.30;;
57551;SDS011;43379;48.160;14.036;2023-09-08T05:45:34;8.93;;;8.03;;
57551;SDS011;43379;48.160;14.036;2023-09-08T05:47:59;8.00;;;7.30;;
57551;SDS011;43379;48.160;14.036;2023-09-08T05:50:27;7.70;;;7.10;;
57551;SDS011;43379;48.160;14.036;2023-09-08T05:52:53;8.10;;;7.40;;
57551;SDS011;43379;48.160;14.036;2023-09-08T05:55:18;7.63;;;6.97;;
57551;SDS011;43379;48.160;14.036;2023-09-08T05:57:44;9.67;;;8.00;;
57551;SDS011;43379;48.160;14.036;2023-09-08T06:00:10;7.17;;;6.43;;
57551;SDS011;43379;48.160;14.036;2023-09-08T06:02:37;7.53;;;6.93;;
57551;SDS011;43379;48.160;14.036;2023-09-08T06:05:03;8.17;;;6.17;;
57551;SDS011;43379;48.160;14.036;2023-09-08T06:07:29;6.63;;;6.03;;
57551;SDS011;43379;48.160;14.036;2023-09-08T06:09:54;6.80;;;5.97;;
57551;SDS011;43379;48.160;14.036;2023-09-08T06:12:21;5.83;;;5.23;;
57551;SDS011;43379;48.160;14.036;2023-09-08T06:14:47;5.40;;;4.90;;
57551;SDS011;43379;48.160;14.036;2023-09-08T06:17:12;6.40;;;5.80;;
57551;SDS011;43379;48.160;14.036;2023-09-08T06:19:38;5.93;;;5.33;;
57551;SDS011;43379;48.160;14.036;2023-09-08T06:22:04;6.10;;;5.40;;
57551;SDS011;43379;48.160;14.036;2023-09-08T06:24:29;6.13;;;5.63;;
57551;SDS011;43379;48.160;14.036;2023-09-08T06:26:55;7.70;;;6.73;;
57551;SDS011;43379;48.160;14.036;2023-09-08T06:29:21;6.33;;;5.73;;
57551;SDS011;43379;48.160;14.036;2023-09-08T06:31:46;7.70;;;6.90;;
57551;SDS011;43379;48.160;14.036;2023-09-08T06:34:12;5.50;;;5.10;;
57551;SDS011;43379;48.160;14.036;2023-09-08T06:36:37;5.93;;;4.83;;
57551;SDS011;43379;48.160;14.036;2023-09-08T06:39:03;6.00;;;5.40;;
57551;SDS011;43379;48.160;14.036;2023-09-08T06:41:29;6.23;;;5.77;;
57551;SDS011;43379;48.160;14.036;2023-09-08T06:43:55;6.13;;;4.80;;
57551;SDS011;43379;48.160;14.036;2023-09-08T06:46:20;5.63;;;5.17;;
57551;SDS011;43379;48.160;14.036;2023-09-08T06:48:46;7.50;;;5.87;;
57551;SDS011;43379;48.160;14.036;2023-09-08T06:51:11;6.60;;;5.53;;
57551;SDS011;43379;48.160;14.036;2023-09-08T06:53:37;6.93;;;6.23;;
57551;SDS011;43379;48.160;14.036;2023-09-08T06:56:03;6.23;;;5.63;;
57551;SDS011;43379;48.160;14.036;2023-09-08T06:58:29;6.60;;;6.00;;
57551;SDS011;43379;48.160;14.036;2023-09-08T07:00:54;8.30;;;5.10;;
57551;SDS011;43379;48.160;14.036;2023-09-08T07:03:23;4.97;;;4.47;;
57551;SDS011;43379;48.160;14.036;2023-09-08T07:05:49;5.70;;;5.20;;
57551;SDS011;43379;48.160;14.036;2023-09-08T07:08:15;6.03;;;5.53;;
57551;SDS011;43379;48.160;14.036;2023-09-08T07:10:42;5.53;;;5.03;;
57551;SDS011;43379;48.160;14.036;2023-09-08T07:13:08;6.07;;;5.47;;
57551;SDS011;43379;48.160;14.036;2023-09-08T07:15:34;5.50;;;5.00;;
57551;SDS011;43379;48.160;14.036;2023-09-08T07:18:00;6.70;;;6.10;;
57551;SDS011;43379;48.160;14.036;2023-09-08T07:20:25;6.20;;;5.57;;
57551;SDS011;43379;48.160;14.036;2023-09-08T07:22:51;9.40;;;6.10;;
57551;SDS011;43379;48.160;14.036;2023-09-08T07:25:16;5.50;;;5.00;;
57551;SDS011;43379;48.160;14.036;2023-09-08T07:27:42;5.33;;;4.83;;
57551;SDS011;43379;48.160;14.036;2023-09-08T07:30:08;5.47;;;5.07;;
57551;SDS011;43379;48.160;14.036;2023-09-08T07:32:34;5.60;;;5.20;;
57551;SDS011;43379;48.160;14.036;2023-09-08T07:34:59;5.83;;;5.33;;
57551;SDS011;43379;48.160;14.036;2023-09-08T07:37:25;6.67;;;5.50;;
57551;SDS011;43379;48.160;14.036;2023-09-08T07:39:51;4.93;;;4.53;;
57551;SDS011;43379;48.160;14.036;2023-09-08T07:42:16;12.37;;;5.73;;
57551;SDS011;43379;48.160;14.036;2023-09-08T07:44:42;8.27;;;5.80;;
57551;SDS011;43379;48.160;14.036;2023-09-08T07:47:09;5.77;;;5.17;;
57551;SDS011;43379;48.160;14.036;2023-09-08T07:49:34;5.23;;;4.83;;
57551;SDS011;43379;48.160;14.036;2023-09-08T07:52:00;5.57;;;4.90;;
57551;SDS011;43379;48.160;14.036;2023-09-08T07:54:26;5.90;;;4.47;;
57551;SDS011;43379;48.160;14.036;2023-09-08T07:56:51;5.70;;;5.20;;
57551;SDS011;43379;48.160;14.036;2023-09-08T07:59:17;6.70;;;5.47;;
57551;SDS011;43379;48.160;14.036;2023-09-08T08:01:43;6.00;;;5.40;;
57551;SDS011;43379;48.160;14.036;2023-09-08T08:04:08;5.27;;;4.77;;
57551;SDS011;43379;48.160;14.036;2023-09-08T08:06:34;7.50;;;5.20;;
57551;SDS011;43379;48.160;14.036;2023-09-08T08:09:00;5.53;;;5.13;;
57551;SDS011;43379;48.160;14.036;2023-09-08T08:11:26;5.03;;;4.53;;
57551;SDS011;43379;48.160;14.036;2023-09-08T08:13:51;5.47;;;4.97;;
57551;SDS011;43379;48.160;14.036;2023-09-08T08:16:17;5.63;;;5.13;;
57551;SDS011;43379;48.160;14.036;2023-09-08T08:18:43;6.10;;;5.60;;
57551;SDS011;43379;48.160;14.036;2023-09-08T08:21:09;5.73;;;5.23;;
57551;SDS011;43379;48.160;14.036;2023-09-08T08:23:34;6.07;;;5.47;;
57551;SDS011;43379;48.160;14.036;2023-09-08T08:26:01;5.87;;;5.37;;
57551;SDS011;43379;48.160;14.036;2023-09-08T08:28:26;6.83;;;5.30;;
57551;SDS011;43379;48.160;14.036;2023-09-08T08:30:52;5.30;;;4.90;;
57551;SDS011;43379;48.160;14.036;2023-09-08T08:33:18;6.33;;;5.73;;
57551;SDS011;43379;48.160;14.036;2023-09-08T08:35:49;5.73;;;5.27;;
57551;SDS011;43379;48.160;14.036;2023-09-08T08:38:15;7.30;;;5.27;;
57551;SDS011;43379;48.160;14.036;2023-09-08T08:40:41;6.23;;;5.73;;
57551;SDS011;43379;48.160;14.036;2023-09-08T08:43:07;5.93;;;5.20;;
57551;SDS011;43379;48.160;14.036;2023-09-08T08:45:32;5.60;;;5.07;;
57551;SDS011;43379;48.160;14.036;2023-09-08T08:48:00;7.43;;;5.30;;
57551;SDS011;43379;48.160;14.036;2023-09-08T08:50:28;5.93;;;5.20;;
57551;SDS011;43379;48.160;14.036;2023-09-08T08:52:56;6.10;;;5.60;;
57551;SDS011;43379;48.160;14.036;2023-09-08T08:55:23;6.93;;;5.37;;
57551;SDS011;43379;48.160;14.036;2023-09-08T08:57:50;5.90;;;5.33;;
57551;SDS011;43379;48.160;14.036;2023-09-08T09:00:17;5.40;;;5.00;;
57551;SDS011;43379;48.160;14.036;2023-09-08T09:02:43;6.20;;;5.57;;
57551;SDS011;43379;48.160;14.036;2023-09-08T09:05:14;6.00;;;5.50;;
57551;SDS011;43379;48.160;14.036;2023-09-08T09:07:43;7.07;;;5.53;;
57551;SDS011;43379;48.160;14.036;2023-09-08T09:10:09;6.17;;;5.60;;
57551;SDS011;43379;48.160;14.036;2023-09-08T09:12:38;6.27;;;5.50;;
57551;SDS011;43379;48.160;14.036;2023-09-08T09:15:04;6.00;;;5.40;;
57551;SDS011;43379;48.160;14.036;2023-09-08T09:17:35;6.10;;;5.50;;
57551;SDS011;43379;48.160;14.036;2023-09-08T09:20:16;6.23;;;5.73;;
57551;SDS011;43379;48.160;14.036;2023-09-08T09:22:44;6.63;;;5.27;;
57551;SDS011;43379;48.160;14.036;2023-09-08T09:25:12;6.50;;;5.40;;
57551;SDS011;43379;48.160;14.036;2023-09-08T09:27:57;6.03;;;5.53;;
57551;SDS011;43379;48.160;14.036;2023-09-08T09:30:24;6.40;;;5.60;;
57551;SDS011;43379;48.160;14.036;2023-09-08T09:33:03;6.70;;;6.10;;
57551;SDS011;43379;48.160;14.036;2023-09-08T09:35:42;6.90;;;6.20;;
57551;SDS011;43379;48.160;14.036;2023-09-08T09:38:16;6.40;;;5.80;;
57551;SDS011;43379;48.160;14.036;2023-09-08T09:40:43;5.60;;;5.00;;
57551;SDS011;43379;48.160;14.036;2023-09-08T09:43:10;6.27;;;5.67;;
57551;SDS011;43379;48.160;14.036;2023-09-08T09:45:37;6.83;;;6.23;;
57551;SDS011;43379;48.160;14.036;2023-09-08T09:48:04;6.63;;;6.03;;
57551;SDS011;43379;48.160;14.036;2023-09-08T09:50:31;9.00;;;6.00;;
57551;SDS011;43379;48.160;14.036;2023-09-08T09:52:59;6.23;;;5.73;;
57551;SDS011;43379;48.160;14.036;2023-09-08T09:55:26;6.50;;;5.80;;
57551;SDS011;43379;48.160;14.036;2023-09-08T09:57:56;6.50;;;6.00;;
57551;SDS011;43379;48.160;14.036;2023-09-08T10:00:29;6.17;;;5.67;;
57551;SDS011;43379;48.160;14.036;2023-09-08T10:02:57;6.13;;;5.53;;
57551;SDS011;43379;48.160;14.036;2023-09-08T10:05:23;6.97;;;5.43;;
57551;SDS011;43379;48.160;14.036;2023-09-08T10:07:50;6.03;;;5.43;;
57551;SDS011;43379;48.160;14.036;2023-09-08T10:10:16;8.43;;;6.10;;
57551;SDS011;43379;48.160;14.036;2023-09-08T10:12:43;7.97;;;6.10;;
57551;SDS011;43379;48.160;14.036;2023-09-08T10:15:11;5.03;;;4.63;;
57551;SDS011;43379;48.160;14.036;2023-09-08T10:17:38;8.63;;;6.00;;
57551;SDS011;43379;48.160;14.036;2023-09-08T10:20:06;6.43;;;5.93;;
57551;SDS011;43379;48.160;14.036;2023-09-08T10:22:41;6.33;;;5.37;;
57551;SDS011;43379;48.160;14.036;2023-09-08T10:25:08;6.90;;;6.27;;
57551;SDS011;43379;48.160;14.036;2023-09-08T10:27:35;6.70;;;6.03;;
57551;SDS011;43379;48.160;14.036;2023-09-08T10:30:03;6.80;;;5.97;;
57551;SDS011;43379;48.160;14.036;2023-09-08T10:32:30;6.20;;;5.57;;
57551;SDS011;43379;48.160;14.036;2023-09-08T10:35:01;7.03;;;6.33;;
57551;SDS011;43379;48.160;14.036;2023-09-08T10:37:28;7.07;;;6.27;;
57551;SDS011;43379;48.160;14.036;2023-09-08T10:39:55;6.70;;;6.20;;
57551;SDS011;43379;48.160;14.036;2023-09-08T10:42:28;7.70;;;6.00;;
57551;SDS011;43379;48.160;14.036;2023-09-08T10:44:58;6.63;;;6.03;;
57551;SDS011;43379;48.160;14.036;2023-09-08T10:47:33;6.13;;;5.60;;
57551;SDS011;43379;48.160;14.036;2023-09-08T10:50:17;7.37;;;6.37;;
57551;SDS011;43379;48.160;14.036;2023-09-08T10:52:43;6.87;;;6.20;;
57551;SDS011;43379;48.160;14.036;2023-09-08T10:55:10;8.60;;;5.30;;
57551;SDS011;43379;48.160;14.036;2023-09-08T10:57:37;5.73;;;5.33;;
57551;SDS011;43379;48.160;14.036;2023-09-08T11:00:09;8.17;;;6.17;;
57551;SDS011;43379;48.160;14.036;2023-09-08T11:02:37;6.83;;;5.37;;
57551;SDS011;43379;48.160;14.036;2023-09-08T11:05:07;6.30;;;5.80;;
57551;SDS011;43379;48.160;14.036;2023-09-08T11:07:35;6.23;;;5.30;;
57551;SDS011;43379;48.160;14.036;2023-09-08T11:10:02;5.67;;;5.23;;
57551;SDS011;43379;48.160;14.036;2023-09-08T11:12:29;6.77;;;5.60;;
57551;SDS011;43379;48.160;14.036;2023-09-08T11:14:56;6.10;;;5.60;;
57551;SDS011;43379;48.160;14.036;2023-09-08T11:17:25;8.73;;;6.20;;
57551;SDS011;43379;48.160;14.036;2023-09-08T11:19:51;6.10;;;5.60;;
57551;SDS011;43379;48.160;14.036;2023-09-08T11:22:17;6.03;;;5.53;;
57551;SDS011;43379;48.160;14.036;2023-09-08T11:24:43;5.90;;;5.33;;
57551;SDS011;43379;48.160;14.036;2023-09-08T11:27:10;9.43;;;5.90;;
57551;SDS011;43379;48.160;14.036;2023-09-08T11:29:36;6.10;;;5.40;;
57551;SDS011;43379;48.160;14.036;2023-09-08T11:32:05;5.87;;;5.47;;
57551;SDS011;43379;48.160;14.036;2023-09-08T11:34:34;5.70;;;5.10;;
57551;SDS011;43379;48.160;14.036;2023-09-08T11:37:05;6.93;;;6.33;;
57551;SDS011;43379;48.160;14.036;2023-09-08T11:39:38;5.03;;;4.63;;
57551;SDS011;43379;48.160;14.036;2023-09-08T11:42:05;5.70;;;5.20;;
57551;SDS011;43379;48.160;14.036;2023-09-08T11:44:35;5.30;;;4.90;;
57551;SDS011;43379;48.160;14.036;2023-09-08T11:47:01;6.13;;;5.63;;
57551;SDS011;43379;48.160;14.036;2023-09-08T11:49:33;5.83;;;5.33;;
57551;SDS011;43379;48.160;14.036;2023-09-08T11:51:59;6.10;;;5.50;;
57551;SDS011;43379;48.160;14.036;2023-09-08T11:54:25;7.20;;;5.67;;
57551;SDS011;43379;48.160;14.036;2023-09-08T11:56:51;5.80;;;5.40;;
57551;SDS011;43379;48.160;14.036;2023-09-08T11:59:17;5.80;;;5.30;;
57551;SDS011;43379;48.160;14.036;2023-09-08T12:01:43;5.87;;;5.33;;
57551;SDS011;43379;48.160;14.036;2023-09-08T12:04:16;5.93;;;5.10;;
57551;SDS011;43379;48.160;14.036;2023-09-08T12:06:45;6.17;;;5.57;;
57551;SDS011;43379;48.160;14.036;2023-09-08T12:09:12;5.10;;;4.70;;
57551;SDS011;43379;48.160;14.036;2023-09-08T12:11:39;5.37;;;4.87;;
57551;SDS011;43379;48.160;14.036;2023-09-08T12:14:07;5.70;;;5.20;;
57551;SDS011;43379;48.160;14.036;2023-09-08T12:16:37;5.93;;;5.33;;
57551;SDS011;43379;48.160;14.036;2023-09-08T12:19:03;5.80;;;5.30;;
57551;SDS011;43379;48.160;14.036;2023-09-08T12:21:29;6.30;;;5.70;;
57551;SDS011;43379;48.160;14.036;2023-09-08T12:23:56;5.13;;;4.73;;
57551;SDS011;43379;48.160;14.036;2023-09-08T12:26:24;5.27;;;4.87;;
57551;SDS011;43379;48.160;14.036;2023-09-08T12:28:50;5.17;;;4.77;;
57551;SDS011;43379;48.160;14.036;2023-09-08T12:31:17;5.77;;;5.27;;
57551;SDS011;43379;48.160;14.036;2023-09-08T12:33:43;5.47;;;4.97;;
57551;SDS011;43379;48.160;14.036;2023-09-08T12:38:46;5.97;;;5.47;;
57551;SDS011;43379;48.160;14.036;2023-09-08T12:41:13;5.47;;;5.07;;
57551;SDS011;43379;48.160;14.036;2023-09-08T12:43:38;6.03;;;5.53;;
57551;SDS011;43379;48.160;14.036;2023-09-08T12:46:04;5.30;;;4.90;;
57551;SDS011;43379;48.160;14.036;2023-09-08T12:48:29;5.80;;;5.30;;
57551;SDS011;43379;48.160;14.036;2023-09-08T12:50:55;6.20;;;5.60;;
57551;SDS011;43379;48.160;14.036;2023-09-08T12:53:21;7.20;;;6.50;;
57551;SDS011;43379;48.160;14.036;2023-09-08T12:55:48;6.57;;;5.87;;
57551;SDS011;43379;48.160;14.036;2023-09-08T12:58:14;6.90;;;5.57;;
57551;SDS011;43379;48.160;14.036;2023-09-08T13:00:40;6.00;;;5.50;;
57551;SDS011;43379;48.160;14.036;2023-09-08T13:03:05;6.60;;;6.00;;
57551;SDS011;43379;48.160;14.036;2023-09-08T13:05:31;6.97;;;5.80;;
57551;SDS011;43379;48.160;14.036;2023-09-08T13:07:57;5.83;;;5.33;;
57551;SDS011;43379;48.160;14.036;2023-09-08T13:10:23;5.63;;;5.13;;
57551;SDS011;43379;48.160;14.036;2023-09-08T13:12:49;5.40;;;4.90;;
57551;SDS011;43379;48.160;14.036;2023-09-08T13:15:14;5.80;;;5.17;;
57551;SDS011;43379;48.160;14.036;2023-09-08T13:17:40;5.97;;;5.20;;
57551;SDS011;43379;48.160;14.036;2023-09-08T13:20:06;6.07;;;5.57;;
57551;SDS011;43379;48.160;14.036;2023-09-08T13:22:32;5.50;;;5.00;;
57551;SDS011;43379;48.160;14.036;2023-09-08T13:24:58;7.07;;;5.23;;
57551;SDS011;43379;48.160;14.036;2023-09-08T13:27:24;6.17;;;5.67;;
57551;SDS011;43379;48.160;14.036;2023-09-08T13:29:49;5.20;;;4.70;;
57551;SDS011;43379;48.160;14.036;2023-09-08T13:32:15;6.60;;;5.80;;
57551;SDS011;43379;48.160;14.036;2023-09-08T13:34:41;6.67;;;6.07;;
57551;SDS011;43379;48.160;14.036;2023-09-08T13:37:08;5.50;;;5.10;;
57551;SDS011;43379;48.160;14.036;2023-09-08T13:39:34;6.57;;;5.20;;
57551;SDS011;43379;48.160;14.036;2023-09-08T13:42:00;5.50;;;5.00;;
57551;SDS011;43379;48.160;14.036;2023-09-08T13:44:27;6.30;;;5.70;;
57551;SDS011;43379;48.160;14.036;2023-09-08T13:46:53;7.67;;;5.00;;
57551;SDS011;43379;48.160;14.036;2023-09-08T13:49:19;6.17;;;5.57;;
57551;SDS011;43379;48.160;14.036;2023-09-08T13:51:45;6.63;;;6.10;;
57551;SDS011;43379;48.160;14.036;2023-09-08T13:54:11;6.70;;;6.10;;
57551;SDS011;43379;48.160;14.036;2023-09-08T13:56:40;5.97;;;5.37;;
57551;SDS011;43379;48.160;14.036;2023-09-08T13:59:07;8.20;;;5.13;;
57551;SDS011;43379;48.160;14.036;2023-09-08T14:01:34;6.17;;;5.60;;
57551;SDS011;43379;48.160;14.036;2023-09-08T14:04:01;6.80;;;6.20;;
57551;SDS011;43379;48.160;14.036;2023-09-08T14:06:27;7.40;;;5.80;;
57551;SDS011;43379;48.160;14.036;2023-09-08T14:08:53;6.77;;;4.77;;
57551;SDS011;43379;48.160;14.036;2023-09-08T14:11:19;6.20;;;5.17;;
57551;SDS011;43379;48.160;14.036;2023-09-08T14:13:46;7.13;;;6.30;;
57551;SDS011;43379;48.160;14.036;2023-09-08T14:16:11;7.20;;;5.87;;
57551;SDS011;43379;48.160;14.036;2023-09-08T14:18:38;6.40;;;5.80;;
57551;SDS011;43379;48.160;14.036;2023-09-08T14:21:04;6.30;;;5.80;;
57551;SDS011;43379;48.160;14.036;2023-09-08T14:23:30;6.17;;;5.37;;
57551;SDS011;43379;48.160;14.036;2023-09-08T14:25:56;6.23;;;5.73;;
57551;SDS011;43379;48.160;14.036;2023-09-08T14:28:21;7.47;;;6.77;;
57551;SDS011;43379;48.160;14.036;2023-09-08T14:30:49;6.97;;;6.00;;
57551;SDS011;43379;48.160;14.036;2023-09-08T14:33:15;6.27;;;5.50;;
57551;SDS011;43379;48.160;14.036;2023-09-08T14:35:42;6.83;;;6.23;;